sensor_id;sensor_type;location;lat;lon;timestamp;P1;durP1;ratioP1;P2;durP2;ratioP2
42096;SDS011;27754;45.414;11.084;2023-01-13T00:01:26;30.73;;;19.30;;
42096;SDS011;27754;45.414;11.084;2023-01-13T00:03:55;30.63;;;19.13;;
42096;SDS011;27754;45.414;11.084;2023-01-13T00:06:22;29.45;;;19.73;;
42096;SDS011;27754;45.414;11.084;2023-01-13T00:08:54;33.03;;;20.50;;
42096;SDS011;27754;45.414;11.084;2023-01-13T00:11:21;39.40;;;23.83;;
42096;SDS011;27754;45.414;11.084;2023-01-13T00:13:49;37.95;;;23.75;;
42096;SDS011;27754;45.414;11.084;2023-01-13T00:16:16;37.03;;;23.77;;
42096;SDS011;27754;45.414;11.084;2023-01-13T00:18:44;38.47;;;24.48;;
42096;SDS011;27754;45.414;11.084;2023-01-13T00:21:13;33.63;;;21.58;;
42096;SDS011;27754;45.414;11.084;2023-01-13T00:23:42;36.33;;;24.10;;
42096;SDS011;27754;45.414;11.084;2023-01-13T00:26:11;36.83;;;23.48;;
42096;SDS011;27754;45.414;11.084;2023-01-13T00:28:39;30.95;;;20.65;;
42096;SDS011;27754;45.414;11.084;2023-01-13T00:31:07;33.95;;;21.73;;
42096;SDS011;27754;45.414;11.084;2023-01-13T00:33:39;32.63;;;20.35;;
42096;SDS011;27754;45.414;11.084;2023-01-13T00:36:06;33.25;;;21.23;;
42096;SDS011;27754;45.414;11.084;2023-01-13T00:38:34;32.70;;;20.05;;
42096;SDS011;27754;45.414;11.084;2023-01-13T00:41:03;33.20;;;20.95;;
42096;SDS011;27754;45.414;11.084;2023-01-13T00:43:32;34.00;;;20.35;;
42096;SDS011;27754;45.414;11.084;2023-01-13T00:46:00;38.08;;;19.48;;
42096;SDS011;27754;45.414;11.084;2023-01-13T00:48:27;38.25;;;23.15;;
42096;SDS011;27754;45.414;11.084;2023-01-13T00:53:23;35.97;;;24.33;;
42096;SDS011;27754;45.414;11.084;2023-01-13T00:56:00;39.50;;;24.92;;
42096;SDS011;27754;45.414;11.084;2023-01-13T00:58:29;39.20;;;24.17;;
42096;SDS011;27754;45.414;11.084;2023-01-13T01:00:59;34.53;;;23.55;;
42096;SDS011;27754;45.414;11.084;2023-01-13T01:03:31;39.80;;;24.60;;
42096;SDS011;27754;45.414;11.084;2023-01-13T01:06:05;42.70;;;26.13;;
42096;SDS011;27754;45.414;11.084;2023-01-13T01:08:43;37.65;;;23.92;;
42096;SDS011;27754;45.414;11.084;2023-01-13T01:11:11;39.92;;;26.02;;
42096;SDS011;27754;45.414;11.084;2023-01-13T01:13:40;35.67;;;23.45;;
42096;SDS011;27754;45.414;11.084;2023-01-13T01:16:08;36.15;;;24.15;;
42096;SDS011;27754;45.414;11.084;2023-01-13T01:18:38;41.92;;;24.98;;
42096;SDS011;27754;45.414;11.084;2023-01-13T01:21:07;42.58;;;26.15;;
42096;SDS011;27754;45.414;11.084;2023-01-13T01:23:34;38.22;;;26.13;;
42096;SDS011;27754;45.414;11.084;2023-01-13T01:26:06;37.15;;;24.10;;
42096;SDS011;27754;45.414;11.084;2023-01-13T01:28:35;37.35;;;24.73;;
42096;SDS011;27754;45.414;11.084;2023-01-13T01:31:07;41.83;;;26.35;;
42096;SDS011;27754;45.414;11.084;2023-01-13T01:33:35;47.97;;;26.60;;
42096;SDS011;27754;45.414;11.084;2023-01-13T01:36:02;41.45;;;24.17;;
42096;SDS011;27754;45.414;11.084;2023-01-13T01:38:30;46.95;;;27.42;;
42096;SDS011;27754;45.414;11.084;2023-01-13T01:40:57;47.13;;;30.33;;
42096;SDS011;27754;45.414;11.084;2023-01-13T01:43:46;39.05;;;25.25;;
42096;SDS011;27754;45.414;11.084;2023-01-13T01:46:31;40.63;;;26.60;;
42096;SDS011;27754;45.414;11.084;2023-01-13T01:51:41;41.47;;;28.45;;
42096;SDS011;27754;45.414;11.084;2023-01-13T01:54:16;45.33;;;28.92;;
42096;SDS011;27754;45.414;11.084;2023-01-13T01:56:50;43.55;;;30.27;;
42096;SDS011;27754;45.414;11.084;2023-01-13T01:59:18;42.92;;;28.67;;
42096;SDS011;27754;45.414;11.084;2023-01-13T02:01:46;43.70;;;30.17;;
42096;SDS011;27754;45.414;11.084;2023-01-13T02:04:15;45.45;;;27.45;;
42096;SDS011;27754;45.414;11.084;2023-01-13T02:06:47;43.35;;;27.90;;
42096;SDS011;27754;45.414;11.084;2023-01-13T02:09:15;45.17;;;29.30;;
42096;SDS011;27754;45.414;11.084;2023-01-13T02:11:42;48.58;;;30.02;;
42096;SDS011;27754;45.414;11.084;2023-01-13T02:14:28;49.53;;;32.47;;
42096;SDS011;27754;45.414;11.084;2023-01-13T02:17:02;49.85;;;31.90;;
42096;SDS011;27754;45.414;11.084;2023-01-13T02:32:34;52.10;;;31.15;;
42096;SDS011;27754;45.414;11.084;2023-01-13T02:35:26;52.65;;;32.05;;
42096;SDS011;27754;45.414;11.084;2023-01-13T02:38:04;48.10;;;31.38;;
42096;SDS011;27754;45.414;11.084;2023-01-13T02:40:37;47.42;;;31.55;;
42096;SDS011;27754;45.414;11.084;2023-01-13T02:43:45;45.03;;;28.58;;
42096;SDS011;27754;45.414;11.084;2023-01-13T02:46:38;43.80;;;32.03;;
42096;SDS011;27754;45.414;11.084;2023-01-13T02:49:36;50.42;;;34.60;;
42096;SDS011;27754;45.414;11.084;2023-01-13T02:52:11;49.33;;;32.45;;
42096;SDS011;27754;45.414;11.084;2023-01-13T02:57:13;48.38;;;31.35;;
42096;SDS011;27754;45.414;11.084;2023-01-13T02:59:42;48.20;;;32.28;;
42096;SDS011;27754;45.414;11.084;2023-01-13T03:02:10;45.25;;;29.33;;
42096;SDS011;27754;45.414;11.084;2023-01-13T03:04:45;42.75;;;29.27;;
42096;SDS011;27754;45.414;11.084;2023-01-13T03:10:31;44.78;;;30.50;;
42096;SDS011;27754;45.414;11.084;2023-01-13T03:18:31;43.53;;;28.67;;
42096;SDS011;27754;45.414;11.084;2023-01-13T03:23:51;40.45;;;26.25;;
42096;SDS011;27754;45.414;11.084;2023-01-13T03:32:15;42.88;;;27.23;;
42096;SDS011;27754;45.414;11.084;2023-01-13T03:34:49;44.63;;;28.73;;
42096;SDS011;27754;45.414;11.084;2023-01-13T03:37:20;48.42;;;30.55;;
42096;SDS011;27754;45.414;11.084;2023-01-13T03:42:52;43.28;;;30.33;;
42096;SDS011;27754;45.414;11.084;2023-01-13T03:45:44;40.40;;;27.90;;
42096;SDS011;27754;45.414;11.084;2023-01-13T03:48:17;46.55;;;28.55;;
42096;SDS011;27754;45.414;11.084;2023-01-13T03:50:47;44.33;;;26.40;;
42096;SDS011;27754;45.414;11.084;2023-01-13T03:53:22;39.33;;;25.50;;
42096;SDS011;27754;45.414;11.084;2023-01-13T03:56:01;32.60;;;19.02;;
42096;SDS011;27754;45.414;11.084;2023-01-13T03:58:40;29.95;;;18.88;;
42096;SDS011;27754;45.414;11.084;2023-01-13T04:01:20;31.40;;;16.88;;
42096;SDS011;27754;45.414;11.084;2023-01-13T04:04:08;27.13;;;18.67;;
42096;SDS011;27754;45.414;11.084;2023-01-13T04:06:46;25.52;;;17.30;;
42096;SDS011;27754;45.414;11.084;2023-01-13T04:09:26;27.52;;;16.75;;
42096;SDS011;27754;45.414;11.084;2023-01-13T04:12:04;27.15;;;17.02;;
42096;SDS011;27754;45.414;11.084;2023-01-13T04:14:39;26.88;;;16.20;;
42096;SDS011;27754;45.414;11.084;2023-01-13T04:17:06;26.02;;;16.90;;
42096;SDS011;27754;45.414;11.084;2023-01-13T04:19:33;26.73;;;17.25;;
42096;SDS011;27754;45.414;11.084;2023-01-13T04:22:00;23.63;;;17.27;;
42096;SDS011;27754;45.414;11.084;2023-01-13T04:24:27;29.30;;;17.27;;
42096;SDS011;27754;45.414;11.084;2023-01-13T04:26:54;31.60;;;17.23;;
42096;SDS011;27754;45.414;11.084;2023-01-13T04:29:21;24.58;;;16.55;;
42096;SDS011;27754;45.414;11.084;2023-01-13T04:31:48;29.48;;;16.83;;
42096;SDS011;27754;45.414;11.084;2023-01-13T04:34:15;27.42;;;16.33;;
42096;SDS011;27754;45.414;11.084;2023-01-13T04:36:42;25.00;;;16.25;;
42096;SDS011;27754;45.414;11.084;2023-01-13T04:39:10;27.77;;;16.33;;
42096;SDS011;27754;45.414;11.084;2023-01-13T04:41:37;29.02;;;16.35;;
42096;SDS011;27754;45.414;11.084;2023-01-13T04:44:23;30.25;;;17.80;;
42096;SDS011;27754;45.414;11.084;2023-01-13T04:46:50;27.83;;;16.83;;
42096;SDS011;27754;45.414;11.084;2023-01-13T04:49:16;28.02;;;15.70;;
42096;SDS011;27754;45.414;11.084;2023-01-13T04:51:43;25.85;;;15.15;;
42096;SDS011;27754;45.414;11.084;2023-01-13T04:54:10;26.33;;;15.15;;
42096;SDS011;27754;45.414;11.084;2023-01-13T04:56:37;25.23;;;15.90;;
42096;SDS011;27754;45.414;11.084;2023-01-13T04:59:04;26.95;;;15.43;;
42096;SDS011;27754;45.414;11.084;2023-01-13T05:01:31;32.05;;;16.33;;
42096;SDS011;27754;45.414;11.084;2023-01-13T05:03:58;28.55;;;16.17;;
42096;SDS011;27754;45.414;11.084;2023-01-13T05:06:25;25.60;;;16.95;;
42096;SDS011;27754;45.414;11.084;2023-01-13T05:08:52;23.52;;;16.23;;
42096;SDS011;27754;45.414;11.084;2023-01-13T05:11:18;25.88;;;17.10;;
42096;SDS011;27754;45.414;11.084;2023-01-13T05:14:04;32.63;;;20.67;;
42096;SDS011;27754;45.414;11.084;2023-01-13T05:16:52;30.90;;;20.10;;
42096;SDS011;27754;45.414;11.084;2023-01-13T05:19:26;31.65;;;19.90;;
42096;SDS011;27754;45.414;11.084;2023-01-13T05:21:55;30.73;;;18.63;;
42096;SDS011;27754;45.414;11.084;2023-01-13T05:24:40;29.05;;;20.13;;
42096;SDS011;27754;45.414;11.084;2023-01-13T05:29:53;28.58;;;17.63;;
42096;SDS011;27754;45.414;11.084;2023-01-13T05:32:20;30.00;;;15.98;;
42096;SDS011;27754;45.414;11.084;2023-01-13T05:34:48;35.15;;;17.30;;
42096;SDS011;27754;45.414;11.084;2023-01-13T05:37:15;19.77;;;14.25;;
42096;SDS011;27754;45.414;11.084;2023-01-13T05:39:42;27.33;;;15.52;;
42096;SDS011;27754;45.414;11.084;2023-01-13T05:42:28;23.85;;;15.80;;
42096;SDS011;27754;45.414;11.084;2023-01-13T05:45:13;25.75;;;15.77;;
42096;SDS011;27754;45.414;11.084;2023-01-13T05:47:40;34.42;;;23.17;;
42096;SDS011;27754;45.414;11.084;2023-01-13T05:50:07;37.55;;;22.80;;
42096;SDS011;27754;45.414;11.084;2023-01-13T05:52:34;34.03;;;22.33;;
42096;SDS011;27754;45.414;11.084;2023-01-13T05:55:01;37.92;;;25.35;;
42096;SDS011;27754;45.414;11.084;2023-01-13T05:57:28;38.35;;;25.02;;
42096;SDS011;27754;45.414;11.084;2023-01-13T05:59:55;36.40;;;23.05;;
42096;SDS011;27754;45.414;11.084;2023-01-13T06:02:22;40.40;;;23.90;;
42096;SDS011;27754;45.414;11.084;2023-01-13T06:04:50;51.78;;;29.13;;
42096;SDS011;27754;45.414;11.084;2023-01-13T06:07:16;45.30;;;25.10;;
42096;SDS011;27754;45.414;11.084;2023-01-13T06:09:43;42.40;;;27.75;;
42096;SDS011;27754;45.414;11.084;2023-01-13T06:12:11;38.42;;;24.33;;
42096;SDS011;27754;45.414;11.084;2023-01-13T06:14:38;37.75;;;24.20;;
42096;SDS011;27754;45.414;11.084;2023-01-13T06:17:09;40.72;;;24.60;;
42096;SDS011;27754;45.414;11.084;2023-01-13T06:19:39;40.42;;;23.77;;
42096;SDS011;27754;45.414;11.084;2023-01-13T06:22:14;35.95;;;24.15;;
42096;SDS011;27754;45.414;11.084;2023-01-13T06:24:47;40.03;;;23.40;;
42096;SDS011;27754;45.414;11.084;2023-01-13T06:27:15;31.23;;;22.15;;
42096;SDS011;27754;45.414;11.084;2023-01-13T06:29:43;38.55;;;23.58;;
42096;SDS011;27754;45.414;11.084;2023-01-13T06:32:14;35.42;;;23.25;;
42096;SDS011;27754;45.414;11.084;2023-01-13T06:34:46;38.28;;;25.25;;
42096;SDS011;27754;45.414;11.084;2023-01-13T06:37:16;39.72;;;24.25;;
42096;SDS011;27754;45.414;11.084;2023-01-13T06:39:46;43.47;;;25.33;;
42096;SDS011;27754;45.414;11.084;2023-01-13T06:42:14;38.58;;;24.35;;
42096;SDS011;27754;45.414;11.084;2023-01-13T06:44:59;44.55;;;26.00;;
42096;SDS011;27754;45.414;11.084;2023-01-13T06:47:26;40.92;;;25.05;;
42096;SDS011;27754;45.414;11.084;2023-01-13T06:49:53;37.17;;;25.58;;
42096;SDS011;27754;45.414;11.084;2023-01-13T06:52:20;41.97;;;23.33;;
42096;SDS011;27754;45.414;11.084;2023-01-13T06:54:48;40.45;;;22.92;;
42096;SDS011;27754;45.414;11.084;2023-01-13T06:57:15;40.65;;;22.48;;
42096;SDS011;27754;45.414;11.084;2023-01-13T06:59:42;42.78;;;24.33;;
42096;SDS011;27754;45.414;11.084;2023-01-13T07:02:09;36.22;;;23.77;;
42096;SDS011;27754;45.414;11.084;2023-01-13T07:04:36;40.13;;;24.40;;
42096;SDS011;27754;45.414;11.084;2023-01-13T07:07:03;35.22;;;23.35;;
42096;SDS011;27754;45.414;11.084;2023-01-13T07:09:30;38.85;;;22.25;;
42096;SDS011;27754;45.414;11.084;2023-01-13T07:11:57;34.17;;;21.67;;
42096;SDS011;27754;45.414;11.084;2023-01-13T07:14:24;37.10;;;21.63;;
42096;SDS011;27754;45.414;11.084;2023-01-13T07:17:10;37.03;;;22.65;;
42096;SDS011;27754;45.414;11.084;2023-01-13T07:19:37;34.85;;;22.05;;
42096;SDS011;27754;45.414;11.084;2023-01-13T07:22:04;40.20;;;23.20;;
42096;SDS011;27754;45.414;11.084;2023-01-13T07:24:30;43.15;;;23.88;;
42096;SDS011;27754;45.414;11.084;2023-01-13T07:26:57;44.33;;;24.67;;
42096;SDS011;27754;45.414;11.084;2023-01-13T07:29:24;64.57;;;25.05;;
42096;SDS011;27754;45.414;11.084;2023-01-13T07:31:51;61.85;;;25.88;;
42096;SDS011;27754;45.414;11.084;2023-01-13T07:34:18;50.17;;;25.30;;
42096;SDS011;27754;45.414;11.084;2023-01-13T07:36:45;47.83;;;22.45;;
42096;SDS011;27754;45.414;11.084;2023-01-13T07:39:12;37.83;;;21.67;;
42096;SDS011;27754;45.414;11.084;2023-01-13T07:41:39;40.15;;;21.65;;
42096;SDS011;27754;45.414;11.084;2023-01-13T07:44:24;39.70;;;21.77;;
42096;SDS011;27754;45.414;11.084;2023-01-13T07:46:52;42.97;;;25.40;;
42096;SDS011;27754;45.414;11.084;2023-01-13T07:49:19;40.38;;;27.20;;
42096;SDS011;27754;45.414;11.084;2023-01-13T07:51:46;38.50;;;26.27;;
42096;SDS011;27754;45.414;11.084;2023-01-13T07:54:13;32.25;;;20.55;;
42096;SDS011;27754;45.414;11.084;2023-01-13T07:56:40;36.13;;;20.15;;
42096;SDS011;27754;45.414;11.084;2023-01-13T07:59:07;41.72;;;21.67;;
42096;SDS011;27754;45.414;11.084;2023-01-13T08:01:33;35.03;;;20.20;;
42096;SDS011;27754;45.414;11.084;2023-01-13T08:04:00;31.90;;;20.13;;
42096;SDS011;27754;45.414;11.084;2023-01-13T08:06:27;36.75;;;19.88;;
42096;SDS011;27754;45.414;11.084;2023-01-13T08:08:54;35.58;;;21.00;;
42096;SDS011;27754;45.414;11.084;2023-01-13T08:11:21;41.38;;;19.45;;
42096;SDS011;27754;45.414;11.084;2023-01-13T08:13:49;32.60;;;20.15;;
42096;SDS011;27754;45.414;11.084;2023-01-13T08:16:20;46.08;;;19.58;;
42096;SDS011;27754;45.414;11.084;2023-01-13T08:18:47;34.53;;;20.25;;
42096;SDS011;27754;45.414;11.084;2023-01-13T08:21:13;30.70;;;18.35;;
42096;SDS011;27754;45.414;11.084;2023-01-13T08:23:41;31.92;;;19.48;;
42096;SDS011;27754;45.414;11.084;2023-01-13T08:26:11;35.00;;;19.42;;
42096;SDS011;27754;45.414;11.084;2023-01-13T08:28:41;31.15;;;17.55;;
42096;SDS011;27754;45.414;11.084;2023-01-13T08:31:10;32.47;;;17.85;;
42096;SDS011;27754;45.414;11.084;2023-01-13T08:33:39;34.35;;;19.30;;
42096;SDS011;27754;45.414;11.084;2023-01-13T08:36:07;44.22;;;24.83;;
42096;SDS011;27754;45.414;11.084;2023-01-13T08:38:36;38.60;;;21.60;;
42096;SDS011;27754;45.414;11.084;2023-01-13T08:41:10;34.63;;;20.13;;
42096;SDS011;27754;45.414;11.084;2023-01-13T08:43:38;30.70;;;18.70;;
42096;SDS011;27754;45.414;11.084;2023-01-13T08:46:05;27.20;;;17.65;;
42096;SDS011;27754;45.414;11.084;2023-01-13T08:48:32;30.90;;;16.77;;
42096;SDS011;27754;45.414;11.084;2023-01-13T08:51:06;24.15;;;16.58;;
42096;SDS011;27754;45.414;11.084;2023-01-13T08:53:34;25.08;;;15.43;;
42096;SDS011;27754;45.414;11.084;2023-01-13T08:56:05;29.05;;;14.98;;
42096;SDS011;27754;45.414;11.084;2023-01-13T08:58:33;26.30;;;14.30;;
42096;SDS011;27754;45.414;11.084;2023-01-13T09:01:03;27.38;;;16.38;;
42096;SDS011;27754;45.414;11.084;2023-01-13T09:03:31;22.13;;;14.93;;
42096;SDS011;27754;45.414;11.084;2023-01-13T09:05:58;24.83;;;14.90;;
42096;SDS011;27754;45.414;11.084;2023-01-13T09:08:25;25.27;;;13.32;;
42096;SDS011;27754;45.414;11.084;2023-01-13T09:10:51;22.13;;;13.90;;
42096;SDS011;27754;45.414;11.084;2023-01-13T09:13:18;23.52;;;14.40;;
42096;SDS011;27754;45.414;11.084;2023-01-13T09:15:47;25.42;;;13.35;;
42096;SDS011;27754;45.414;11.084;2023-01-13T09:18:14;24.45;;;13.05;;
42096;SDS011;27754;45.414;11.084;2023-01-13T09:20:41;21.95;;;13.68;;
42096;SDS011;27754;45.414;11.084;2023-01-13T09:23:07;26.25;;;14.60;;
42096;SDS011;27754;45.414;11.084;2023-01-13T09:25:36;29.58;;;14.63;;
42096;SDS011;27754;45.414;11.084;2023-01-13T09:28:03;27.02;;;14.40;;
42096;SDS011;27754;45.414;11.084;2023-01-13T09:30:34;28.88;;;17.42;;
42096;SDS011;27754;45.414;11.084;2023-01-13T09:33:02;25.83;;;18.63;;
42096;SDS011;27754;45.414;11.084;2023-01-13T09:35:47;32.63;;;19.85;;
42096;SDS011;27754;45.414;11.084;2023-01-13T09:38:14;30.88;;;21.00;;
42096;SDS011;27754;45.414;11.084;2023-01-13T09:40:41;31.95;;;19.70;;
42096;SDS011;27754;45.414;11.084;2023-01-13T09:43:19;26.83;;;19.67;;
42096;SDS011;27754;45.414;11.084;2023-01-13T09:46:20;28.88;;;18.90;;
42096;SDS011;27754;45.414;11.084;2023-01-13T09:49:14;33.55;;;21.67;;
42096;SDS011;27754;45.414;11.084;2023-01-13T09:51:56;38.60;;;22.73;;
42096;SDS011;27754;45.414;11.084;2023-01-13T09:54:31;31.88;;;22.42;;
42096;SDS011;27754;45.414;11.084;2023-01-13T09:57:06;32.13;;;21.13;;
42096;SDS011;27754;45.414;11.084;2023-01-13T09:59:39;32.65;;;21.45;;
42096;SDS011;27754;45.414;11.084;2023-01-13T10:02:15;42.10;;;21.63;;
42096;SDS011;27754;45.414;11.084;2023-01-13T10:07:53;28.02;;;18.73;;
42096;SDS011;27754;45.414;11.084;2023-01-13T10:10:33;30.48;;;18.85;;
42096;SDS011;27754;45.414;11.084;2023-01-13T10:13:13;36.30;;;19.90;;
42096;SDS011;27754;45.414;11.084;2023-01-13T10:15:54;29.55;;;18.63;;
42096;SDS011;27754;45.414;11.084;2023-01-13T10:18:48;31.58;;;18.67;;
42096;SDS011;27754;45.414;11.084;2023-01-13T10:27:36;29.77;;;17.85;;
42096;SDS011;27754;45.414;11.084;2023-01-13T10:32:54;29.45;;;17.90;;
42096;SDS011;27754;45.414;11.084;2023-01-13T10:40:55;34.13;;;21.88;;
42096;SDS011;27754;45.414;11.084;2023-01-13T10:43:24;24.92;;;17.92;;
42096;SDS011;27754;45.414;11.084;2023-01-13T10:46:03;48.42;;;29.67;;
42096;SDS011;27754;45.414;11.084;2023-01-13T10:56:37;27.35;;;17.63;;
42096;SDS011;27754;45.414;11.084;2023-01-13T11:01:59;31.88;;;19.40;;
42096;SDS011;27754;45.414;11.084;2023-01-13T11:07:29;35.20;;;21.95;;
42096;SDS011;27754;45.414;11.084;2023-01-13T11:12:43;36.28;;;24.10;;
42096;SDS011;27754;45.414;11.084;2023-01-13T11:15:40;34.35;;;22.67;;
42096;SDS011;27754;45.414;11.084;2023-01-13T11:21:28;37.08;;;24.35;;
42096;SDS011;27754;45.414;11.084;2023-01-13T11:24:26;38.78;;;25.63;;
42096;SDS011;27754;45.414;11.084;2023-01-13T11:27:21;44.92;;;27.92;;
42096;SDS011;27754;45.414;11.084;2023-01-13T11:30:17;47.25;;;29.35;;
42096;SDS011;27754;45.414;11.084;2023-01-13T11:35:41;43.78;;;28.98;;
42096;SDS011;27754;45.414;11.084;2023-01-13T11:38:11;42.42;;;30.50;;
42096;SDS011;27754;45.414;11.084;2023-01-13T11:40:45;42.75;;;29.95;;
42096;SDS011;27754;45.414;11.084;2023-01-13T11:43:25;39.60;;;28.33;;
42096;SDS011;27754;45.414;11.084;2023-01-13T11:46:00;42.83;;;29.60;;
42096;SDS011;27754;45.414;11.084;2023-01-13T11:48:28;42.20;;;28.38;;
42096;SDS011;27754;45.414;11.084;2023-01-13T11:56:31;41.67;;;28.52;;
42096;SDS011;27754;45.414;11.084;2023-01-13T12:02:15;39.78;;;26.20;;
42096;SDS011;27754;45.414;11.084;2023-01-13T12:13:13;42.45;;;29.73;;
42096;SDS011;27754;45.414;11.084;2023-01-13T12:18:33;45.35;;;29.30;;
42096;SDS011;27754;45.414;11.084;2023-01-13T12:21:19;42.88;;;29.30;;
42096;SDS011;27754;45.414;11.084;2023-01-13T12:26:56;43.45;;;29.58;;
42096;SDS011;27754;45.414;11.084;2023-01-13T12:29:31;49.80;;;31.33;;
42096;SDS011;27754;45.414;11.084;2023-01-13T12:32:01;40.40;;;26.98;;
42096;SDS011;27754;45.414;11.084;2023-01-13T12:34:45;39.47;;;25.10;;
42096;SDS011;27754;45.414;11.084;2023-01-13T12:37:27;38.60;;;25.23;;
42096;SDS011;27754;45.414;11.084;2023-01-13T12:40:14;35.88;;;24.98;;
42096;SDS011;27754;45.414;11.084;2023-01-13T12:42:54;38.95;;;24.33;;
42096;SDS011;27754;45.414;11.084;2023-01-13T12:51:24;40.33;;;25.50;;
42096;SDS011;27754;45.414;11.084;2023-01-13T12:53:59;42.70;;;27.35;;
42096;SDS011;27754;45.414;11.084;2023-01-13T12:56:40;42.17;;;28.38;;
42096;SDS011;27754;45.414;11.084;2023-01-13T13:07:16;37.70;;;27.33;;
42096;SDS011;27754;45.414;11.084;2023-01-13T13:09:53;42.53;;;27.13;;
42096;SDS011;27754;45.414;11.084;2023-01-13T13:15:24;35.42;;;26.63;;
42096;SDS011;27754;45.414;11.084;2023-01-13T13:20:53;37.83;;;26.48;;
42096;SDS011;27754;45.414;11.084;2023-01-13T13:32:10;40.05;;;27.13;;
42096;SDS011;27754;45.414;11.084;2023-01-13T13:40:43;35.35;;;26.35;;
42096;SDS011;27754;45.414;11.084;2023-01-13T13:43:38;38.60;;;28.70;;
42096;SDS011;27754;45.414;11.084;2023-01-13T13:46:27;37.78;;;27.42;;
42096;SDS011;27754;45.414;11.084;2023-01-13T13:49:13;40.15;;;27.83;;
42096;SDS011;27754;45.414;11.084;2023-01-13T13:51:47;40.25;;;26.88;;
42096;SDS011;27754;45.414;11.084;2023-01-13T13:54:23;37.97;;;27.98;;
42096;SDS011;27754;45.414;11.084;2023-01-13T13:56:50;39.08;;;26.77;;
42096;SDS011;27754;45.414;11.084;2023-01-13T13:59:19;37.67;;;27.98;;
42096;SDS011;27754;45.414;11.084;2023-01-13T14:01:55;38.53;;;27.30;;
42096;SDS011;27754;45.414;11.084;2023-01-13T14:04:32;36.22;;;26.58;;
42096;SDS011;27754;45.414;11.084;2023-01-13T14:07:04;36.38;;;25.98;;
42096;SDS011;27754;45.414;11.084;2023-01-13T14:09:44;39.50;;;26.98;;
42096;SDS011;27754;45.414;11.084;2023-01-13T14:12:20;37.38;;;25.98;;
42096;SDS011;27754;45.414;11.084;2023-01-13T14:14:48;33.13;;;24.02;;
42096;SDS011;27754;45.414;11.084;2023-01-13T14:17:24;37.92;;;24.30;;
42096;SDS011;27754;45.414;11.084;2023-01-13T14:22:28;39.55;;;24.85;;
42096;SDS011;27754;45.414;11.084;2023-01-13T14:24:55;37.35;;;25.85;;
42096;SDS011;27754;45.414;11.084;2023-01-13T14:27:24;35.55;;;26.35;;
42096;SDS011;27754;45.414;11.084;2023-01-13T14:29:53;33.47;;;25.05;;
42096;SDS011;27754;45.414;11.084;2023-01-13T14:32:22;34.05;;;26.00;;
42096;SDS011;27754;45.414;11.084;2023-01-13T14:34:57;41.95;;;26.48;;
42096;SDS011;27754;45.414;11.084;2023-01-13T14:37:34;37.20;;;25.60;;
42096;SDS011;27754;45.414;11.084;2023-01-13T14:40:05;40.47;;;26.58;;
42096;SDS011;27754;45.414;11.084;2023-01-13T14:42:57;42.88;;;25.67;;
42096;SDS011;27754;45.414;11.084;2023-01-13T14:45:57;36.22;;;25.50;;
42096;SDS011;27754;45.414;11.084;2023-01-13T14:48:28;35.63;;;25.77;;
42096;SDS011;27754;45.414;11.084;2023-01-13T14:51:01;37.63;;;25.67;;
42096;SDS011;27754;45.414;11.084;2023-01-13T14:53:36;35.63;;;24.17;;
42096;SDS011;27754;45.414;11.084;2023-01-13T15:10:47;29.02;;;21.52;;
42096;SDS011;27754;45.414;11.084;2023-01-13T15:16:17;34.15;;;22.45;;
42096;SDS011;27754;45.414;11.084;2023-01-13T15:18:50;32.42;;;22.42;;
42096;SDS011;27754;45.414;11.084;2023-01-13T15:21:18;34.05;;;22.52;;
42096;SDS011;27754;45.414;11.084;2023-01-13T15:23:45;30.13;;;22.33;;
42096;SDS011;27754;45.414;11.084;2023-01-13T15:28:44;34.00;;;21.88;;
42096;SDS011;27754;45.414;11.084;2023-01-13T15:31:12;29.38;;;20.98;;
42096;SDS011;27754;45.414;11.084;2023-01-13T15:33:39;31.52;;;21.77;;
42096;SDS011;27754;45.414;11.084;2023-01-13T15:36:18;27.75;;;21.33;;
42096;SDS011;27754;45.414;11.084;2023-01-13T15:38:47;29.27;;;21.13;;
42096;SDS011;27754;45.414;11.084;2023-01-13T15:41:15;29.10;;;22.23;;
42096;SDS011;27754;45.414;11.084;2023-01-13T15:43:42;35.08;;;22.80;;
42096;SDS011;27754;45.414;11.084;2023-01-13T15:46:27;37.88;;;22.38;;
42096;SDS011;27754;45.414;11.084;2023-01-13T15:49:10;31.58;;;21.08;;
42096;SDS011;27754;45.414;11.084;2023-01-13T15:51:53;29.55;;;20.13;;
42096;SDS011;27754;45.414;11.084;2023-01-13T15:54:20;35.13;;;22.17;;
42096;SDS011;27754;45.414;11.084;2023-01-13T15:56:49;40.05;;;21.55;;
42096;SDS011;27754;45.414;11.084;2023-01-13T15:59:18;36.08;;;22.42;;
42096;SDS011;27754;45.414;11.084;2023-01-13T16:01:48;37.75;;;22.30;;
42096;SDS011;27754;45.414;11.084;2023-01-13T16:04:15;32.47;;;22.17;;
42096;SDS011;27754;45.414;11.084;2023-01-13T16:06:42;40.63;;;24.40;;
42096;SDS011;27754;45.414;11.084;2023-01-13T16:09:12;47.58;;;22.95;;
42096;SDS011;27754;45.414;11.084;2023-01-13T16:11:40;40.72;;;24.38;;
42096;SDS011;27754;45.414;11.084;2023-01-13T16:14:07;32.42;;;21.10;;
42096;SDS011;27754;45.414;11.084;2023-01-13T16:16:34;45.78;;;23.10;;
42096;SDS011;27754;45.414;11.084;2023-01-13T16:19:01;41.78;;;25.65;;
42096;SDS011;27754;45.414;11.084;2023-01-13T16:21:28;37.75;;;25.75;;
42096;SDS011;27754;45.414;11.084;2023-01-13T16:23:55;34.80;;;23.05;;
42096;SDS011;27754;45.414;11.084;2023-01-13T16:26:23;42.08;;;22.88;;
42096;SDS011;27754;45.414;11.084;2023-01-13T16:28:55;43.60;;;25.08;;
42096;SDS011;27754;45.414;11.084;2023-01-13T16:31:24;46.58;;;25.20;;
42096;SDS011;27754;45.414;11.084;2023-01-13T16:33:58;42.28;;;25.10;;
42096;SDS011;27754;45.414;11.084;2023-01-13T16:36:26;42.00;;;23.63;;
42096;SDS011;27754;45.414;11.084;2023-01-13T16:38:55;46.15;;;25.02;;
42096;SDS011;27754;45.414;11.084;2023-01-13T16:41:21;42.00;;;25.60;;
42096;SDS011;27754;45.414;11.084;2023-01-13T16:43:50;41.78;;;27.67;;
42096;SDS011;27754;45.414;11.084;2023-01-13T16:46:22;48.00;;;27.05;;
42096;SDS011;27754;45.414;11.084;2023-01-13T16:49:00;55.03;;;29.50;;
42096;SDS011;27754;45.414;11.084;2023-01-13T16:51:28;48.13;;;28.50;;
42096;SDS011;27754;45.414;11.084;2023-01-13T16:53:55;47.17;;;27.88;;
42096;SDS011;27754;45.414;11.084;2023-01-13T16:58:54;54.28;;;29.15;;
42096;SDS011;27754;45.414;11.084;2023-01-13T17:01:27;44.42;;;26.08;;
42096;SDS011;27754;45.414;11.084;2023-01-13T17:03:56;45.58;;;26.05;;
42096;SDS011;27754;45.414;11.084;2023-01-13T17:06:26;42.90;;;26.90;;
42096;SDS011;27754;45.414;11.084;2023-01-13T17:08:59;43.25;;;27.15;;
42096;SDS011;27754;45.414;11.084;2023-01-13T17:11:27;45.03;;;28.38;;
42096;SDS011;27754;45.414;11.084;2023-01-13T17:13:54;46.60;;;30.15;;
42096;SDS011;27754;45.414;11.084;2023-01-13T17:16:21;51.67;;;29.42;;
42096;SDS011;27754;45.414;11.084;2023-01-13T17:18:49;44.65;;;29.17;;
42096;SDS011;27754;45.414;11.084;2023-01-13T17:21:17;46.78;;;27.73;;
42096;SDS011;27754;45.414;11.084;2023-01-13T17:23:44;42.20;;;28.67;;